Time;durP1;ratioP1;P1;durP2;ratioP2;P2;SDS_P1;SDS_P2;PMS_P1;PMS_P2;Temp;Humidity;BMP_temperature;BMP_pressure;BME280_temperature;BME280_humidity;BME280_pressure;Samples;Min_cycle;Max_cycle;Signal;HPM_P1;HPM_P2
2021/11/18 00:00:25;;;;;;;;;;;;;;;4.92;100.00;101702.50;5091526;28;20339;-75
2021/11/18 00:02:51;;;;;;;11.13;2.13;;;;;;;4.88;100.00;101677.19;5091690;28;19912;-74
2021/11/18 00:05:20;;;;;;;12.55;2.45;;;;;;;4.92;100.00;101670.75;5074031;28;20040;-75
2021/11/18 00:07:49;;;;;;;18.42;3.17;;;;;;;4.99;100.00;101666.72;5091870;28;20028;-74
2021/11/18 00:10:18;;;;;;;11.38;2.30;;;;;;;4.92;100.00;101643.44;5091754;28;20471;-74
2021/11/18 00:12:45;;;;;;;18.05;3.17;;;;;;;4.74;100.00;101619.06;5091579;28;20039;-74
2021/11/18 00:15:11;;;;;;;7.85;1.52;;;;;;;4.72;100.00;101626.25;5091447;28;20020;-74
2021/11/18 00:17:37;;;;;;;17.55;3.10;;;;;;;4.77;100.00;101632.06;5073847;28;20115;-74
2021/11/18 00:20:05;;;;;;;9.38;2.15;;;;;;;4.83;100.00;101658.97;5090720;28;20533;-74
2021/11/18 00:22:31;;;;;;;14.00;2.55;;;;;;;4.83;100.00;101650.19;5089913;28;20059;-74
2021/11/18 00:24:57;;;;;;;8.77;1.88;;;;;;;4.87;100.00;101659.63;5073340;28;20052;-74
2021/11/18 00:27:22;;;;;;;11.33;2.60;;;;;;;4.90;100.00;101664.69;5090407;28;20046;-74
2021/11/18 00:29:50;;;;;;;10.10;2.28;;;;;;;4.96;100.00;101674.84;5090353;28;20054;-74
2021/11/18 00:32:15;;;;;;;;;;;;;;;4.92;100.00;101668.09;5073931;28;20020;-74
2021/11/18 00:34:42;;;;;;;;;;;;;;;4.82;100.00;101645.84;5090999;28;19912;-74
2021/11/18 00:37:08;;;;;;;9.75;1.60;;;;;;;4.70;100.00;101642.22;5090279;28;19912;-74
2021/11/18 00:39:34;;;;;;;11.65;2.08;;;;;;;4.69;100.00;101647.63;5073328;28;20067;-74
2021/11/18 00:41:59;;;;;;;13.73;3.53;;;;;;;4.86;100.00;101687.88;5090220;28;20074;-74
2021/11/18 00:44:25;;;;;;;12.30;2.17;;;;;;;4.91;100.00;101707.88;5089908;28;20051;-74
2021/11/18 00:46:50;;;;;;;11.60;1.53;;;;;;;4.93;100.00;101690.09;5090182;28;20066;-74
2021/11/18 00:49:15;;;;;;;11.07;2.17;;;;;;;5.10;100.00;101721.56;5090141;28;20032;-74
2021/11/18 00:51:43;;;;;;;15.50;3.47;;;;;;;5.10;100.00;101704.84;5089987;28;20032;-74
2021/11/18 00:54:09;;;;;;;10.25;1.83;;;;;;;5.00;100.00;101694.03;5072629;28;20067;-74
2021/11/18 00:56:34;;;;;;;8.03;2.47;;;;;;;4.97;100.00;101697.75;5090020;28;20062;-74
2021/11/18 00:59:00;;;;;;;11.25;1.88;;;;;;;4.93;100.00;101692.75;5089921;28;20028;-74
2021/11/18 01:01:29;;;;;;;15.10;1.73;;;;;;;4.87;100.00;101696.66;5072987;28;20101;-74
2021/11/18 01:03:57;;;;;;;12.13;3.35;;;;;;;4.86;100.00;101702.91;5072450;28;20089;-74
2021/11/18 01:06:27;;;;;;;14.68;3.47;;;;;;;4.81;100.00;101705.00;5073493;28;20121;-74
2021/11/18 01:08:53;;;;;;;17.88;2.10;;;;;;;4.77;100.00;101712.28;5089648;28;20036;-74
2021/11/18 01:11:26;;;;;;;12.55;2.03;;;;;;;4.86;100.00;101737.28;5089577;28;20040;-74
2021/11/18 01:13:53;;;;;;;10.88;3.70;;;;;;;4.96;100.00;101764.00;5089206;28;20040;-74
2021/11/18 01:16:24;;;;;;;13.63;3.28;;;;;;;4.79;100.00;101743.94;5089552;28;20039;-74
2021/11/18 01:18:50;;;;;;;14.02;2.22;;;;;;;4.93;100.00;101777.44;5089473;28;20036;-74
2021/11/18 01:21:17;;;;;;;15.32;2.70;;;;;;;4.88;100.00;101755.72;5089428;28;20028;-74
2021/11/18 01:23:44;;;;;;;14.30;2.95;;;;;;;4.92;100.00;101778.41;5089166;28;20028;-74
2021/11/18 01:26:13;;;;;;;16.17;3.70;;;;;;;4.91;100.00;101800.50;5089329;28;20452;-74
2021/11/18 01:28:39;;;;;;;14.55;4.38;;;;;;;4.86;100.00;101793.72;5089273;28;20047;-74
2021/11/18 01:31:05;;;;;;;20.58;4.07;;;;;;;4.77;100.00;101794.31;5072550;28;20065;-74
2021/11/18 01:33:33;;;;;;;26.83;4.78;;;;;;;4.79;100.00;101812.72;5087886;28;20032;-74
2021/11/18 01:35:59;;;;;;;18.73;3.58;;;;;;;4.79;100.00;101818.03;5088808;28;20024;-74
2021/11/18 01:38:26;;;;;;;17.98;4.65;;;;;;;4.85;100.00;101836.16;5089191;28;20032;-74
2021/11/18 01:41:09;;;;;;;16.63;3.78;;;;;;;4.82;100.00;101837.22;5089165;28;20044;-74
2021/11/18 01:43:43;;;;;;;28.77;5.03;;;;;;;4.73;100.00;101836.94;5088642;28;20127;-74
2021/11/18 01:46:14;;;;;;;23.60;5.95;;;;;;;4.81;100.00;101861.13;5088943;28;20024;-74
2021/11/18 01:48:40;;;;;;;23.02;5.05;;;;;;;4.62;100.00;101840.28;5072160;28;20032;-74
2021/11/18 01:51:06;;;;;;;26.35;5.35;;;;;;;4.78;100.00;101880.69;5088823;28;20028;-74
2021/11/18 01:53:39;;;;;;;25.58;6.97;;;;;;;4.76;100.00;101887.03;5088423;28;20039;-74
2021/11/18 01:56:12;;;;;;;19.73;5.03;;;;;;;4.77;100.00;101900.13;5088769;28;20036;-74
2021/11/18 01:58:39;;;;;;;19.15;5.07;;;;;;;4.70;100.00;101888.25;5088855;28;20533;-74
2021/11/18 02:01:22;;;;;;;20.05;6.57;;;;;;;4.68;100.00;101899.88;5074189;28;20067;-74
2021/11/18 02:03:48;;;;;;;19.02;5.72;;;;;;;4.62;100.00;101904.59;5088454;28;20797;-74
2021/11/18 02:06:36;;;;;;;28.33;5.45;;;;;;;4.61;100.00;101908.19;5088617;28;20032;-74
2021/11/18 02:09:09;;;;;;;27.27;5.55;;;;;;;4.73;100.00;101924.22;5088724;28;20481;-74
2021/11/18 02:11:43;;;;;;;32.90;6.38;;;;;;;4.67;100.00;101927.28;5072066;28;20532;-74
2021/11/18 02:14:14;;;;;;;;;;;;;;;4.72;100.00;101935.78;5072514;28;20123;-74
2021/11/18 02:16:42;;;;;;;28.90;7.25;;;;;;;4.70;100.00;101957.03;5088661;28;20018;-74
2021/11/18 02:19:10;;;;;;;22.15;6.30;;;;;;;4.70;100.00;101962.31;5071922;28;20513;-74
2021/11/18 02:21:38;;;;;;;24.67;5.65;;;;;;;4.73;100.00;101967.44;5071825;28;20107;-74
2021/11/18 02:24:15;;;;;;;28.90;6.03;;;;;;;4.69;100.00;101954.50;5088309;28;20032;-74
2021/11/18 02:26:43;;;;;;;18.98;5.30;;;;;;;4.73;100.00;101966.56;5088527;28;20827;-74
2021/11/18 02:29:08;;;;;;;26.00;6.25;;;;;;;4.79;100.00;101982.91;5088523;28;20035;-74
2021/11/18 02:31:45;;;;;;;18.90;4.75;;;;;;;4.72;100.00;101972.81;5088420;28;20064;-74
2021/11/18 02:34:18;;;;;;;22.02;5.25;;;;;;;4.73;100.00;101977.16;5087674;28;20039;-74
2021/11/18 02:36:44;;;;;;;25.05;5.28;;;;;;;4.72;100.00;101980.75;5071780;28;20028;-74
2021/11/18 02:39:10;;;;;;;23.27;5.07;;;;;;;4.75;100.00;101969.97;5088553;28;20449;-74
2021/11/18 02:41:37;;;;;;;28.95;6.00;;;;;;;4.73;100.00;101974.50;5087326;28;20043;-74
2021/11/18 02:44:05;;;;;;;22.40;5.88;;;;;;;4.78;100.00;101985.69;5088016;28;20131;-74
2021/11/18 02:46:30;;;;;;;29.45;4.72;;;;;;;4.73;100.00;101972.72;5090649;28;20046;-74
2021/11/18 02:48:56;;;;;;;23.95;5.60;;;;;;;4.74;100.00;101974.41;5092403;28;20027;-74
2021/11/18 02:51:24;;;;;;;30.27;4.78;;;;;;;4.74;100.00;101995.59;5075506;28;20118;-74
2021/11/18 02:53:53;;;;;;;28.98;5.70;;;;;;;4.68;100.00;101997.75;5075470;28;20155;-74
2021/11/18 02:56:19;;;;;;;18.13;4.75;;;;;;;4.78;100.00;102012.13;5092295;28;20028;-74
2021/11/18 02:58:47;;;;;;;25.02;5.43;;;;;;;4.83;100.00;102021.47;5075249;28;20473;-74
2021/11/18 03:01:25;;;;;;;38.50;5.55;;;;;;;4.87;100.00;102030.09;5092077;28;20463;-74
2021/11/18 03:03:53;;;;;;;16.85;4.88;;;;;;;4.87;100.00;102022.16;5075309;28;20039;-74
2021/11/18 03:06:19;;;;;;;29.85;5.88;;;;;;;4.88;100.00;102025.66;5092023;28;20036;-74
2021/11/18 03:08:47;;;;;;;19.30;4.95;;;;;;;4.89;100.00;102024.69;5092615;28;20063;-74
2021/11/18 03:11:14;;;;;;;27.58;6.25;;;;;;;5.05;100.00;102058.06;5091884;28;20104;-74
2021/11/18 03:13:39;;;;;;;;;;;;;;;5.02;100.00;102041.53;5091968;28;20131;-74
2021/11/18 03:16:07;;;;;;;22.88;5.32;;;;;;;5.03;100.00;102029.97;5091885;28;19908;-74
2021/11/18 03:18:33;;;;;;;27.52;5.32;;;;;;;5.02;100.00;102036.22;5091858;28;20032;-74
2021/11/18 03:21:03;;;;;;;24.65;5.20;;;;;;;5.12;100.00;102055.03;5091724;28;20453;-75
2021/11/18 03:23:29;;;;;;;16.48;4.45;;;;;;;5.21;100.00;102057.13;5074614;28;20067;-74
2021/11/18 03:25:59;;;;;;;17.70;4.05;;;;;;;5.18;100.00;102046.72;5091539;28;20032;-74
2021/11/18 03:28:27;;;;;;;22.92;4.90;;;;;;;5.18;100.00;102039.63;5091660;28;20089;-74
2021/11/18 03:30:57;;;;;;;22.65;5.80;;;;;;;5.19;100.00;102032.53;5075224;28;20474;-74
2021/11/18 03:33:26;;;;;;;30.35;5.63;;;;;;;5.18;100.00;102023.75;5090706;28;20090;-74
2021/11/18 03:35:55;;;;;;;22.83;5.40;;;;;;;5.20;100.00;102031.59;5074702;28;20450;-74
2021/11/18 03:38:26;;;;;;;27.90;5.43;;;;;;;5.19;100.00;102022.78;5091460;28;20027;-74
2021/11/18 03:41:12;;;;;;;26.15;5.32;;;;;;;5.24;100.00;102025.13;5092691;28;20086;-74
2021/11/18 03:43:50;;;;;;;28.90;4.97;;;;;;;5.17;100.00;102014.06;5074715;28;20460;-74
2021/11/18 03:46:20;;;;;;;36.42;5.25;;;;;;;5.18;100.00;102018.44;5091278;28;20032;-74
2021/11/18 03:48:48;;;;;;;26.35;5.72;;;;;;;5.24;100.00;102023.38;5091306;28;20040;-74
2021/11/18 03:51:14;;;;;;;12.93;3.92;;;;;;;5.24;100.00;102041.91;5091351;28;20480;-74
2021/11/18 03:53:41;;;;;;;21.42;4.55;;;;;;;5.15;100.00;102025.72;5089650;28;20043;-74
2021/11/18 03:56:14;;;;;;;27.85;6.00;;;;;;;5.24;100.00;102059.56;5074423;28;20062;-74
2021/11/18 03:58:40;;;;;;;30.20;6.05;;;;;;;5.29;100.00;102078.66;5090054;28;20368;-74
2021/11/18 04:01:09;;;;;;;17.17;4.97;;;;;;;5.24;100.00;102078.97;5091070;28;20492;-74
2021/11/18 04:03:35;;;;;;;25.25;5.20;;;;;;;5.19;100.00;102083.69;5073895;28;20400;-74
2021/11/18 04:06:03;;;;;;;36.13;6.15;;;;;;;5.31;100.00;102089.16;5090821;28;20098;-74
2021/11/18 04:08:33;;;;;;;24.75;5.22;;;;;;;5.35;100.00;102133.91;5091207;28;20085;-74
2021/11/18 04:10:59;;;;;;;17.52;4.78;;;;;;;5.36;100.00;102124.16;5090853;28;20035;-74
2021/11/18 04:13:24;;;;;;;35.17;6.43;;;;;;;5.45;100.00;102136.81;5090370;28;20036;-74
2021/11/18 04:15:50;;;;;;;27.90;5.57;;;;;;;5.46;100.00;102120.84;5090736;28;20066;-74
2021/11/18 04:18:22;;;;;;;14.80;4.22;;;;;;;5.52;100.00;102119.59;5090588;28;20507;-74
2021/11/18 04:20:50;;;;;;;30.98;6.18;;;;;;;5.50;100.00;102113.53;5091528;28;20044;-74
2021/11/18 04:23:24;;;;;;;23.02;6.03;;;;;;;5.50;100.00;102111.78;5073483;28;20024;-74
2021/11/18 04:25:52;;;;;;;26.10;7.53;;;;;;;5.52;100.00;102108.16;5090497;28;20365;-74
2021/11/18 04:28:18;;;;;;;34.22;7.07;;;;;;;5.57;100.00;102111.38;5073675;28;20604;-74
2021/11/18 04:30:50;;;;;;;23.35;6.53;;;;;;;5.67;100.00;102129.25;5073760;28;20055;-74
2021/11/18 04:33:21;;;;;;;22.50;6.63;;;;;;;5.66;100.00;102116.09;5089705;28;20031;-74
2021/11/18 04:35:49;;;;;;;23.75;7.13;;;;;;;5.67;100.00;102102.75;5073676;28;20552;-74
2021/11/18 04:38:14;;;;;;;;;;;;;;;5.73;100.00;102112.09;5090631;28;20509;-74
2021/11/18 04:40:40;;;;;;;;;;;;;;;5.68;100.00;102090.34;5090824;28;19915;-74
2021/11/18 04:43:06;;;;;;;23.42;6.85;;;;;;;5.66;100.00;102085.13;5073178;28;19933;-74
2021/11/18 04:45:32;;;;;;;19.75;6.80;;;;;;;5.65;100.00;102087.91;5090177;28;20354;-75
2021/11/18 04:47:58;;;;;;;26.95;7.47;;;;;;;5.66;100.00;102098.38;5090168;28;20043;-74
2021/11/18 04:50:25;;;;;;;39.97;7.75;;;;;;;5.65;100.00;102106.44;5090124;28;20028;-75
2021/11/18 04:52:51;;;;;;;24.80;8.35;;;;;;;5.61;100.00;102107.59;5089692;28;20464;-74
2021/11/18 04:55:22;;;;;;;21.42;8.48;;;;;;;5.66;100.00;102122.22;5073310;28;20028;-74
2021/11/18 04:57:48;;;;;;;18.27;7.32;;;;;;;5.84;100.00;102152.03;5073090;28;20023;-74
2021/11/18 05:00:20;;;;;;;26.35;8.52;;;;;;;5.79;100.00;102132.91;5089735;28;20376;-74
2021/11/18 05:02:48;;;;;;;33.58;9.82;;;;;;;5.85;100.00;102151.09;5089835;28;20039;-75
2021/11/18 05:05:14;;;;;;;;;;;;;;;5.87;100.00;102151.81;5072928;28;20040;-75
2021/11/18 05:07:40;;;;;;;39.78;11.90;;;;;;;5.86;100.00;102142.19;5089810;28;19987;-75
2021/11/18 05:10:08;;;;;;;25.88;8.57;;;;;;;5.96;100.00;102174.28;5089398;28;20051;-75
2021/11/18 05:12:34;;;;;;;30.70;10.73;;;;;;;6.03;100.00;102185.34;5072790;28;20078;-75
2021/11/18 05:15:00;;;;;;;31.52;10.00;;;;;;;6.07;100.00;102197.47;5089283;28;20476;-75
2021/11/18 05:17:26;;;;;;;36.95;13.27;;;;;;;6.09;100.00;102193.78;5089662;28;20036;-75
2021/11/18 05:19:51;;;;;;;29.75;10.27;;;;;;;6.05;100.00;102189.59;5072476;28;20377;-75
2021/11/18 05:22:17;;;;;;;42.43;11.67;;;;;;;6.10;100.00;102182.19;5089517;28;20023;-74
2021/11/18 05:24:44;;;;;;;27.17;11.25;;;;;;;6.13;100.00;102191.75;5089002;28;20278;-75
2021/11/18 05:27:11;;;;;;;33.70;11.43;;;;;;;6.12;100.00;102187.41;5089461;28;20335;-75
2021/11/18 05:29:37;;;;;;;33.95;11.80;;;;;;;6.06;100.00;102179.84;5072282;28;20027;-75
2021/11/18 05:32:03;;;;;;;43.30;11.32;;;;;;;6.18;100.00;102200.31;5089400;28;20153;-75
2021/11/18 05:34:53;;;;;;;35.25;11.13;;;;;;;6.18;100.00;102195.00;5088689;28;20554;-75
2021/11/18 05:37:19;;;;;;;;;;;;;;;6.18;100.00;102194.13;5089672;28;20032;-75
2021/11/18 05:39:45;;;;;;;32.55;11.27;;;;;;;6.22;100.00;102204.44;5072289;28;19976;-75
2021/11/18 05:42:12;;;;;;;41.53;13.13;;;;;;;6.11;100.00;102191.00;5072358;28;20039;-75
2021/11/18 05:44:39;;;;;;;31.58;12.38;;;;;;;6.10;100.00;102189.31;5088772;28;20032;-75
2021/11/18 05:47:04;;;;;;;43.20;11.93;;;;;;;6.15;100.00;102205.78;5090028;28;20098;-75
2021/11/18 05:49:30;;;;;;;44.92;11.98;;;;;;;6.27;100.00;102233.31;5072421;28;20036;-75
2021/11/18 05:51:57;;;;;;;35.13;11.90;;;;;;;6.19;100.00;102211.75;5088784;28;20070;-75
2021/11/18 05:54:24;;;;;;;42.95;11.98;;;;;;;6.22;100.00;102212.38;5088548;28;20032;-75
2021/11/18 05:56:50;;;;;;;37.17;14.07;;;;;;;6.14;100.00;102212.03;5088928;28;20039;-75
2021/11/18 05:59:16;;;;;;;38.03;11.38;;;;;;;6.19;100.00;102236.47;5072265;28;20024;-75
2021/11/18 06:01:42;;;;;;;38.17;11.50;;;;;;;6.20;100.00;102240.81;5088835;28;20488;-75
2021/11/18 06:04:09;;;;;;;34.03;11.73;;;;;;;6.20;100.00;102245.25;5071835;28;20380;-75
2021/11/18 06:06:40;;;;;;;38.15;11.88;;;;;;;6.11;100.00;102233.44;5072539;28;20028;-75
2021/11/18 06:09:06;;;;;;;;;;;;;;;6.17;100.00;102243.66;5089170;28;20039;-75
2021/11/18 06:11:37;;;;;;;45.70;11.40;;;;;;;6.18;100.00;102261.28;5072150;28;20295;-75
2021/11/18 06:14:06;;;;;;;42.28;11.93;;;;;;;6.15;100.00;102261.47;5088457;28;20028;-75
2021/11/18 06:16:33;;;;;;;;;;;;;;;6.17;100.00;102270.19;5072369;28;20032;-74
2021/11/18 06:19:01;;;;;;;40.20;11.13;;;;;;;6.11;100.00;102267.91;5088557;28;19922;-75
2021/11/18 06:21:35;;;;;;;45.72;11.23;;;;;;;6.18;100.00;102271.03;5071496;28;20070;-75
2021/11/18 06:24:01;;;;;;;40.28;11.15;;;;;;;6.17;100.00;102275.47;5088264;28;20028;-75
2021/11/18 06:26:27;;;;;;;35.58;11.80;;;;;;;6.06;100.00;102268.22;5088576;28;20024;-75
2021/11/18 06:28:57;;;;;;;42.33;12.93;;;;;;;6.19;100.00;102294.81;5088615;28;20038;-75
2021/11/18 06:31:23;;;;;;;40.90;12.43;;;;;;;6.17;100.00;102286.09;5088378;28;20050;-75
2021/11/18 06:33:49;;;;;;;;;;;;;;;6.23;100.00;102293.69;5088392;28;20036;-75
2021/11/18 06:36:15;;;;;;;;;;;;;;;6.26;100.00;102293.47;5088984;28;19934;-75
2021/11/18 06:38:43;;;;;;;40.03;10.52;;;;;;;6.22;100.00;102284.00;5071582;28;20503;-75
2021/11/18 06:41:10;;;;;;;45.92;12.68;;;;;;;6.27;100.00;102283.72;5071687;28;20384;-75
2021/11/18 06:43:37;;;;;;;36.30;12.13;;;;;;;6.23;100.00;102279.56;5088058;28;20032;-75
2021/11/18 06:46:04;;;;;;;33.50;9.82;;;;;;;6.37;100.00;102286.63;5088318;28;20028;-75
2021/11/18 06:48:30;;;;;;;32.17;11.35;;;;;;;6.42;100.00;102296.00;5088429;28;20036;-75
2021/11/18 06:51:07;;;;;;;36.10;10.35;;;;;;;6.43;100.00;102279.13;5088330;28;20050;-75
2021/11/18 06:53:36;;;;;;;32.83;9.70;;;;;;;6.56;100.00;102287.19;5088018;28;20048;-75
2021/11/18 06:56:02;;;;;;;36.40;11.15;;;;;;;6.51;100.00;102254.78;5088326;28;20020;-75
2021/11/18 06:58:28;;;;;;;38.42;10.50;;;;;;;6.58;100.00;102273.78;5088359;28;20071;-75
2021/11/18 07:00:54;;;;;;;49.35;11.27;;;;;;;6.61;100.00;102247.06;5088396;28;20051;-75
2021/11/18 07:03:20;;;;;;;31.55;9.70;;;;;;;6.68;100.00;102246.56;5088014;28;20027;-75
2021/11/18 07:05:45;;;;;;;39.90;11.50;;;;;;;6.66;100.00;102221.91;5088112;28;20043;-75
2021/11/18 07:08:11;;;;;;;32.92;10.50;;;;;;;6.65;100.00;102204.31;5088198;28;20081;-75
2021/11/18 07:10:40;;;;;;;34.97;10.32;;;;;;;6.67;100.00;102205.06;5088047;28;20236;-75
2021/11/18 07:13:18;;;;;;;36.20;10.35;;;;;;;6.66;100.00;102202.50;5087983;28;20093;-75
2021/11/18 07:15:44;;;;;;;34.53;9.68;;;;;;;6.62;100.00;102185.91;5088140;28;20044;-75
2021/11/18 07:18:14;;;;;;;38.05;12.20;;;;;;;6.68;100.00;102206.75;5071876;28;20036;-75
2021/11/18 07:20:41;;;;;;;32.83;9.77;;;;;;;6.67;100.00;102199.75;5087968;28;20051;-75
2021/11/18 07:23:08;;;;;;;50.03;11.85;;;;;;;6.68;100.00;102208.56;5087584;28;20039;-75
2021/11/18 07:25:38;;;;;;;37.50;11.80;;;;;;;6.65;100.00;102187.50;5071003;28;20028;-74
2021/11/18 07:28:06;;;;;;;29.27;11.10;;;;;;;6.70;100.00;102188.94;5086806;28;20372;-75
2021/11/18 07:30:32;;;;;;;35.17;11.32;;;;;;;6.79;100.00;102197.22;5086887;28;20031;-75
2021/11/18 07:32:57;;;;;;;39.97;10.70;;;;;;;6.85;100.00;102208.28;5087989;28;20047;-75
2021/11/18 07:35:27;;;;;;;39.20;10.07;;;;;;;6.80;100.00;102175.03;5073833;28;20350;-75
2021/11/18 07:37:54;;;;;;;35.08;11.80;;;;;;;6.81;100.00;102166.94;5090357;28;20138;-75
2021/11/18 07:40:22;;;;;;;35.53;10.75;;;;;;;6.85;100.00;102176.41;5073928;28;20122;-74
2021/11/18 07:42:52;;;;;;;32.58;9.23;;;;;;;6.84;100.00;102160.63;5090188;28;20024;-75
2021/11/18 07:45:40;;;;;;;35.40;8.43;;;;;;;6.92;100.00;102158.28;5090996;28;20083;-75
2021/11/18 07:48:25;;;;;;;29.05;9.23;;;;;;;6.95;100.00;102140.34;5090282;28;20119;-75
2021/11/18 07:50:52;;;;;;;33.88;9.20;;;;;;;6.95;100.00;102126.19;5090185;28;20086;-74
2021/11/18 07:53:21;;;;;;;33.35;9.70;;;;;;;7.00;100.00;102124.09;5089691;28;20408;-75
2021/11/18 07:55:47;;;;;;;34.80;9.13;;;;;;;7.00;100.00;102110.81;5090067;28;20032;-74
2021/11/18 07:58:14;;;;;;;23.80;8.23;;;;;;;7.09;100.00;102110.16;5073032;28;20350;-76
2021/11/18 08:00:41;;;;;;;;;;;;;;;7.17;100.00;102091.91;5074702;28;20081;-75
2021/11/18 08:03:17;;;;;;;33.88;8.18;;;;;;;7.23;100.00;102079.13;5091040;28;19918;-75
2021/11/18 08:06:03;;;;;;;34.38;8.15;;;;;;;7.24;100.00;102049.81;5091019;28;20055;-76
2021/11/18 08:08:29;;;;;;;30.15;8.85;;;;;;;7.35;100.00;102043.72;5090644;28;20402;-76
2021/11/18 08:10:55;;;;;;;31.55;7.03;;;;;;;7.39;100.00;102027.44;5074044;28;20077;-75
2021/11/18 08:13:21;;;;;;;32.95;7.97;;;;;;;7.40;100.00;102001.75;5090586;28;20068;-75
2021/11/18 08:15:47;;;;;;;32.38;8.57;;;;;;;7.41;100.00;101987.50;5090855;28;20116;-75
2021/11/18 08:18:12;;;;;;;31.67;8.88;;;;;;;7.40;100.00;101967.22;5073964;28;20054;-75
2021/11/18 08:20:38;;;;;;;35.40;7.95;;;;;;;7.41;100.00;101960.91;5073953;28;20032;-76
2021/11/18 08:23:06;;;;;;;37.03;7.65;;;;;;;7.37;100.00;101956.78;5090284;28;20032;-76
2021/11/18 08:25:33;;;;;;;;;;;;;;;7.49;100.00;101961.22;5090842;28;20098;-75
2021/11/18 08:27:58;;;;;;;33.00;8.02;;;;;;;7.45;100.00;101956.25;5091449;28;20048;-76
2021/11/18 08:30:29;;;;;;;43.80;8.95;;;;;;;7.42;100.00;101946.66;5090479;28;20123;-75
2021/11/18 08:32:59;;;;;;;40.90;11.32;;;;;;;7.38;100.00;101946.06;5090266;28;20104;-76
2021/11/18 08:35:31;;;;;;;33.40;9.50;;;;;;;7.46;100.00;101972.06;5072946;28;20105;-76
2021/11/18 08:38:03;;;;;;;24.17;8.90;;;;;;;7.34;100.00;101949.06;5090412;28;20572;-77
2021/11/18 08:40:33;;;;;;;38.55;9.65;;;;;;;7.32;100.00;101954.47;5091248;28;20107;-77
2021/11/18 08:42:59;;;;;;;37.40;9.25;;;;;;;7.35;100.00;101956.03;5072773;28;20032;-77
2021/11/18 08:45:29;;;;;;;41.05;9.65;;;;;;;7.37;100.00;101954.13;5090182;28;20415;-77
2021/11/18 08:47:54;;;;;;;37.93;11.00;;;;;;;7.32;100.00;101949.16;5073419;28;20055;-76
2021/11/18 08:50:22;;;;;;;28.00;8.75;;;;;;;7.37;100.00;101948.81;5090090;28;20062;-76
2021/11/18 08:52:48;;;;;;;32.83;10.55;;;;;;;7.38;100.00;101953.19;5089842;28;20073;-76
2021/11/18 08:55:24;;;;;;;37.95;10.88;;;;;;;7.40;100.00;101975.19;5072929;28;20449;-75
2021/11/18 08:57:52;;;;;;;33.83;8.35;;;;;;;7.42;100.00;101978.56;5073293;28;20035;-75
2021/11/18 09:00:51;;;;;;;31.98;10.60;;;;;;;7.52;100.00;101990.22;5088947;28;20431;-76
2021/11/18 09:03:21;;;;;;;40.15;9.52;;;;;;;7.42;100.00;101953.78;5088370;28;20042;-75
2021/11/18 09:05:48;;;;;;;42.88;9.50;;;;;;;7.46;100.00;101950.81;5071936;28;20538;-76
2021/11/18 09:08:14;;;;;;;44.33;11.30;;;;;;;7.48;100.00;101963.97;5071790;28;20027;-76
2021/11/18 09:10:46;;;;;;;43.85;9.88;;;;;;;7.47;100.00;101975.56;5088690;28;20024;-76
2021/11/18 09:13:14;;;;;;;36.15;9.13;;;;;;;7.51;100.00;101988.50;5071313;28;20043;-77
2021/11/18 09:15:40;;;;;;;42.13;10.52;;;;;;;7.45;100.00;101983.66;5071814;28;20070;-77
2021/11/18 09:18:08;;;;;;;42.53;10.80;;;;;;;7.56;100.00;101997.03;5089428;28;20063;-76
2021/11/18 09:20:47;;;;;;;32.72;9.10;;;;;;;7.49;100.00;101995.78;5073328;28;20413;-77
2021/11/18 09:23:16;;;;;;;38.83;9.43;;;;;;;7.55;100.00;102021.88;5071597;28;20134;-77
2021/11/18 09:25:45;;;;;;;38.72;9.25;;;;;;;7.63;100.00;102023.13;5071569;28;20385;-76
2021/11/18 09:28:14;;;;;;;34.42;10.07;;;;;;;7.60;100.00;102024.22;5088435;28;20020;-76
2021/11/18 09:30:54;;;;;;;34.05;10.57;;;;;;;7.65;100.00;102023.88;5088644;28;20119;-77
2021/11/18 09:33:21;;;;;;;42.80;11.75;;;;;;;7.72;100.00;102038.41;5087638;28;20028;-77
2021/11/18 09:35:51;;;;;;;35.08;9.68;;;;;;;7.76;100.00;102050.53;5087956;28;20065;-77
2021/11/18 09:38:21;;;;;;;32.17;7.65;;;;;;;7.86;100.00;102062.16;5071373;28;20074;-77
2021/11/18 09:40:58;;;;;;;41.33;11.57;;;;;;;7.96;100.00;102049.91;5088172;28;20062;-76
2021/11/18 09:43:42;;;;;;;38.92;9.50;;;;;;;7.97;100.00;102048.94;5087756;28;20140;-76
2021/11/18 09:46:35;;;;;;;43.10;10.13;;;;;;;8.01;100.00;102013.19;5087956;28;20036;-77
2021/11/18 09:49:10;;;;;;;50.70;10.18;;;;;;;7.95;100.00;101989.69;5071191;28;20032;-76
2021/11/18 09:51:48;;;;;;;40.15;9.02;;;;;;;8.03;100.00;101989.13;5071240;28;20040;-76
2021/11/18 09:54:23;;;;;;;45.67;12.05;;;;;;;8.05;100.00;101976.53;5086439;28;20044;-76
2021/11/18 09:57:07;;;;;;;38.60;11.32;;;;;;;8.00;100.00;101957.44;5070887;28;20484;-77
2021/11/18 09:59:55;;;;;;;43.05;9.93;;;;;;;8.04;100.00;101949.09;5072136;28;20500;-76
2021/11/18 10:02:49;;;;;;;38.88;11.20;;;;;;;7.96;100.00;101927.56;5071358;28;20462;-76
2021/11/18 10:05:22;;;;;;;43.80;10.07;;;;;;;7.94;100.00;101939.28;5087843;28;20456;-77
2021/11/18 10:07:57;;;;;;;45.30;13.27;;;;;;;7.93;100.00;101934.94;5087810;28;20092;-77
2021/11/18 10:10:38;;;;;;;35.05;10.50;;;;;;;7.97;100.00;101958.50;5071552;28;20036;-77
2021/11/18 10:13:11;;;;;;;39.13;10.60;;;;;;;8.03;100.00;101958.06;5087408;28;20036;-77
2021/11/18 10:15:48;;;;;;;41.15;11.82;;;;;;;8.06;100.00;101966.78;5087817;28;20169;-76
2021/11/18 10:18:18;;;;;;;38.13;11.32;;;;;;;8.12;100.00;101966.28;5087412;28;20036;-76
2021/11/18 10:20:46;;;;;;;41.80;11.50;;;;;;;8.12;100.00;101950.34;5088347;28;20040;-76
2021/11/18 10:23:17;;;;;;;31.35;10.73;;;;;;;8.17;100.00;101943.72;5070511;28;20119;-75
2021/11/18 10:25:42;;;;;;;42.92;11.25;;;;;;;8.14;100.00;101919.16;5070723;28;20040;-75
2021/11/18 10:28:22;;;;;;;37.20;11.57;;;;;;;8.18;100.00;101915.28;5089592;28;20372;-76
2021/11/18 10:30:54;;;;;;;34.80;9.55;;;;;;;8.14;100.00;101912.00;5071751;28;20032;-76
2021/11/18 10:33:25;;;;;;;45.47;10.45;;;;;;;8.16;100.00;101906.56;5071018;28;20496;-75
2021/11/18 10:35:53;;;;;;;44.55;12.35;;;;;;;8.23;100.00;101910.47;5089370;28;20078;-75
2021/11/18 10:38:31;;;;;;;35.53;11.60;;;;;;;8.18;100.00;101912.63;5071694;28;20036;-75
2021/11/18 10:41:02;;;;;;;37.80;11.63;;;;;;;8.17;100.00;101905.59;5089412;28;20032;-75
2021/11/18 10:43:35;;;;;;;30.13;9.70;;;;;;;8.16;100.00;101901.25;5071234;28;20043;-75
2021/11/18 10:46:13;;;;;;;37.92;11.77;;;;;;;8.18;100.00;101891.34;5088254;28;20075;-76
2021/11/18 10:48:54;;;;;;;40.67;10.52;;;;;;;8.17;100.00;101879.88;5088343;28;20119;-76
2021/11/18 10:51:46;;;;;;;31.85;10.48;;;;;;;8.19;100.00;101871.75;5088220;28;20036;-76
2021/11/18 10:54:15;;;;;;;26.58;8.70;;;;;;;8.16;100.00;101861.34;5071245;28;20127;-76
2021/11/18 10:56:47;;;;;;;34.40;9.40;;;;;;;8.17;100.00;101865.69;5071587;28;20038;-76
2021/11/18 10:59:18;;;;;;;43.15;11.07;;;;;;;8.21;100.00;101864.50;5089290;28;20040;-76
2021/11/18 11:01:51;;;;;;;33.00;10.00;;;;;;;8.31;100.00;101870.81;5088287;28;20036;-77
2021/11/18 11:04:39;;;;;;;36.53;11.80;;;;;;;8.32;100.00;101859.19;5087684;28;20032;-75
2021/11/18 11:07:06;;;;;;;40.97;11.15;;;;;;;8.28;100.00;101848.91;5088892;28;20032;-76
2021/11/18 11:09:47;;;;;;;36.17;10.38;;;;;;;8.32;100.00;101858.34;5074040;28;20040;-76
2021/11/18 11:12:24;;;;;;;45.10;12.85;;;;;;;8.36;100.00;101852.66;5091606;28;20136;-76
2021/11/18 11:15:31;;;;;;;36.78;10.45;;;;;;;8.47;100.00;101843.84;5091615;28;20063;-75
2021/11/18 11:18:20;;;;;;;39.67;10.43;;;;;;;8.47;100.00;101822.56;5091500;28;20067;-76
2021/11/18 11:21:07;;;;;;;38.78;10.20;;;;;;;8.50;100.00;101800.16;5091950;28;20044;-75
2021/11/18 11:23:46;;;;;;;34.60;10.25;;;;;;;8.54;100.00;101788.31;5091708;28;20131;-76
2021/11/18 11:26:40;;;;;;;29.13;9.50;;;;;;;8.63;100.00;101790.22;5092755;28;20078;-76
2021/11/18 11:29:23;;;;;;;29.92;8.98;;;;;;;8.56;100.00;101747.28;5074838;28;20067;-76
2021/11/18 11:32:05;;;;;;;33.55;8.82;;;;;;;8.73;100.00;101767.19;5091765;28;20123;-76